| time (UTC) | temp F | wind direction | speed knots | gust knots | rain 1hr in | rain 24hr in | rain mn in | humidity % | barometer mb |
| 20260510214319 | 65 | 129 | 0.0 | 7.8 | 0.00 | 0.21 | 0.06 | 85 | 1014.5 |
| 20260510213819 | 65 | 158 | 0.0 | 7.8 | 0.00 | 0.25 | 0.06 | 84 | 1014.6 |
| 20260510213318 | 65 | 158 | 0.0 | 7.8 | 0.00 | 0.25 | 0.06 | 85 | 1014.5 |
| 20260510212818 | 65 | 158 | 0.0 | 7.8 | 0.00 | 0.25 | 0.06 | 84 | 1014.5 |
| 20260510212318 | 65 | 158 | 0.0 | 7.8 | 0.00 | 0.25 | 0.06 | 84 | 1014.3 |
| 20260510211818 | 65 | 158 | 0.0 | 7.8 | 0.00 | 0.25 | 0.06 | 85 | 1014.2 |
| 20260510211318 | 65 | 158 | 0.0 | 7.8 | 0.00 | 0.25 | 0.06 | 86 | 1014.2 |
| 20260510210818 | 64 | 158 | 0.0 | 7.8 | 0.00 | 0.25 | 0.06 | 87 | 1014.2 |
| 20260510210317 | 64 | 158 | 0.0 | 7.8 | 0.00 | 0.25 | 0.06 | 87 | 1014.1 |
| 20260510205817 | 63 | 158 | 0.0 | 7.8 | 0.00 | 0.25 | 0.06 | 88 | 1014.1 |
| 20260510205317 | 63 | 158 | 0.0 | 7.8 | 0.00 | 0.25 | 0.06 | 89 | 1014.2 |
| 20260510204817 | 62 | 158 | 0.0 | 7.8 | 0.00 | 0.25 | 0.06 | 88 | 1014.2 |
| 20260510204317 | 62 | 143 | 1.7 | 7.8 | 0.00 | 0.25 | 0.06 | 88 | 1014.1 |
| 20260510203817 | 62 | 169 | 2.6 | 7.8 | 0.00 | 0.25 | 0.06 | 89 | 1014.1 |
| 20260510203317 | 62 | 113 | 0.9 | 7.8 | 0.00 | 0.25 | 0.06 | 88 | 1014.0 |
| 20260510202816 | 62 | 120 | 0.9 | 7.8 | 0.00 | 0.25 | 0.06 | 89 | 1014.0 |
| 20260510202316 | 62 | 136 | 0.9 | 7.8 | 0.01 | 0.25 | 0.06 | 89 | 1014.0 |
| 20260510201816 | 62 | 126 | 1.7 | 7.8 | 0.04 | 0.25 | 0.06 | 89 | 1014.0 |
| 20260510201316 | 62 | 143 | 1.7 | 7.8 | 0.04 | 0.25 | 0.06 | 89 | 1014.0 |
| 20260510200816 | 62 | 122 | 2.6 | 7.8 | 0.04 | 0.25 | 0.06 | 88 | 1014.1 |
| 20260510200316 | 63 | 151 | 2.6 | 7.8 | 0.04 | 0.25 | 0.06 | 87 | 1014.1 |
| 20260510195815 | 63 | 139 | 2.6 | 7.8 | 0.04 | 0.25 | 0.06 | 87 | 1014.1 |
| 20260510195315 | 64 | 171 | 1.7 | 7.8 | 0.05 | 0.25 | 0.06 | 88 | 1014.3 |
| 20260510194815 | 64 | 166 | 4.3 | 7.8 | 0.05 | 0.25 | 0.06 | 88 | 1014.2 |
| 20260510194315 | 64 | 120 | 1.7 | 6.1 | 0.05 | 0.25 | 0.06 | 92 | 1014.2 |
| 20260510193815 | 63 | 121 | 1.7 | 6.1 | 0.05 | 0.25 | 0.06 | 92 | 1014.1 |
| 20260510193315 | 62 | 147 | 1.7 | 6.1 | 0.05 | 0.25 | 0.06 | 91 | 1014.1 |
| 20260510192814 | 61 | 144 | 0.9 | 6.1 | 0.05 | 0.25 | 0.06 | 90 | 1014.4 |
| 20260510192314 | 62 | 170 | 2.6 | 6.1 | 0.04 | 0.24 | 0.05 | 88 | 1014.5 |
| 20260510191814 | 62 | 135 | 0.0 | 6.1 | 0.01 | 0.21 | 0.02 | 88 | 1014.4 |
| 20260510191314 | 62 | 140 | 0.9 | 6.1 | 0.01 | 0.21 | 0.02 | 87 | 1014.3 |
| 20260510190814 | 63 | 139 | 0.9 | 6.1 | 0.01 | 0.21 | 0.02 | 87 | 1014.4 |
| 20260510190314 | 63 | 215 | 0.9 | 6.1 | 0.01 | 0.21 | 0.02 | 85 | 1014.4 |
| 20260510185813 | 64 | 152 | 2.6 | 6.1 | 0.01 | 0.21 | 0.02 | 82 | 1014.4 |
| 20260510185313 | 65 | 165 | 1.7 | 6.1 | 0.00 | 0.20 | 0.01 | 80 | 1014.3 |
| 20260510184813 | 66 | 145 | 2.6 | 6.1 | 0.00 | 0.20 | 0.01 | 77 | 1014.4 |
| 20260510184313 | 66 | 118 | 1.7 | 6.1 | 0.00 | 0.20 | 0.01 | 78 | 1014.4 |
| 20260510183813 | 67 | 170 | 0.9 | 6.1 | 0.00 | 0.20 | 0.01 | 77 | 1014.5 |
| 20260510183313 | 67 | 138 | 0.9 | 6.1 | 0.00 | 0.20 | 0.01 | 77 | 1014.4 |
| 20260510182813 | 67 | 136 | 0.9 | 6.1 | 0.00 | 0.21 | 0.01 | 77 | 1014.5 |
| 20260510182312 | 68 | 122 | 2.6 | 6.1 | 0.00 | 0.23 | 0.01 | 75 | 1014.5 |
| 20260510181812 | 69 | 137 | 0.9 | 6.1 | 0.00 | 0.23 | 0.01 | 76 | 1014.5 |
| 20260510181312 | 68 | 120 | 1.7 | 6.1 | 0.00 | 0.24 | 0.01 | 75 | 1014.5 |
| 20260510180812 | 67 | 150 | 0.9 | 6.1 | 0.00 | 0.25 | 0.01 | 78 | 1014.6 |
| 20260510180312 | 66 | 126 | 0.9 | 6.1 | 0.00 | 0.26 | 0.01 | 78 | 1014.5 |
| 20260510175812 | 67 | 137 | 1.7 | 6.1 | 0.00 | 0.26 | 0.01 | 77 | 1014.6 |
| 20260510175311 | 67 | 196 | 0.9 | 6.1 | 0.00 | 0.26 | 0.01 | 79 | 1014.6 |
| 20260510174811 | 66 | 155 | 0.9 | 6.1 | 0.00 | 0.26 | 0.01 | 79 | 1014.5 |
| 20260510174311 | 66 | 146 | 1.7 | 6.1 | 0.00 | 0.26 | 0.01 | 78 | 1014.5 |
| 20260510173811 | 66 | 128 | 1.7 | 6.1 | 0.00 | 0.26 | 0.01 | 78 | 1014.5 |
| 20260510173311 | 66 | 208 | 2.6 | 6.1 | 0.00 | 0.26 | 0.01 | 78 | 1014.5 |
| 20260510172811 | 66 | 165 | 0.9 | 6.1 | 0.00 | 0.26 | 0.01 | 78 | 1014.5 |
| 20260510172310 | 67 | 152 | 1.7 | 6.1 | 0.00 | 0.26 | 0.01 | 78 | 1014.4 |
| 20260510171810 | 67 | 172 | 1.7 | 6.1 | 0.00 | 0.26 | 0.01 | 77 | 1014.4 |
| 20260510171310 | 67 | 209 | 0.9 | 6.1 | 0.00 | 0.26 | 0.01 | 79 | 1014.5 |
| 20260510170810 | 66 | 129 | 0.9 | 6.1 | 0.00 | 0.26 | 0.01 | 80 | 1014.5 |
| 20260510170310 | 65 | 149 | 0.0 | 6.1 | 0.00 | 0.26 | 0.01 | 82 | 1014.5 |
| 20260510165810 | 64 | 135 | 0.9 | 6.1 | 0.00 | 0.26 | 0.01 | 83 | 1014.5 |
| 20260510165309 | 64 | 121 | 0.9 | 6.1 | 0.00 | 0.26 | 0.01 | 82 | 1014.5 |
| 20260510164809 | 64 | 123 | 1.7 | 5.2 | 0.00 | 0.26 | 0.01 | 82 | 1014.6 |
| 20260510164309 | 64 | 128 | 1.7 | 5.2 | 0.00 | 0.26 | 0.01 | 82 | 1014.6 |
| 20260510163809 | 64 | 85 | 0.9 | 5.2 | 0.00 | 0.26 | 0.01 | 83 | 1014.7 |
| 20260510163309 | 63 | 128 | 0.0 | 5.2 | 0.00 | 0.26 | 0.01 | 84 | 1014.8 |
| 20260510162809 | 63 | 146 | 0.0 | 5.2 | 0.00 | 0.26 | 0.01 | 85 | 1014.7 |
| 20260510162309 | 62 | 136 | 1.7 | 5.2 | 0.00 | 0.26 | 0.01 | 84 | 1014.6 |
| 20260510161808 | 62 | 143 | 0.9 | 5.2 | 0.00 | 0.26 | 0.01 | 87 | 1014.7 |
| 20260510161308 | 62 | 134 | 0.9 | 5.2 | 0.00 | 0.26 | 0.01 | 85 | 1014.8 |
| 20260510160808 | 63 | 132 | 2.6 | 5.2 | 0.00 | 0.26 | 0.01 | 82 | 1014.9 |
| 20260510160308 | 63 | 135 | 0.0 | 4.3 | 0.00 | 0.26 | 0.01 | 86 | 1014.8 |
| 20260510155808 | 63 | 209 | 1.7 | 4.3 | 0.00 | 0.26 | 0.01 | 85 | 1014.8 |
| 20260510155308 | 62 | 118 | 0.9 | 4.3 | 0.00 | 0.26 | 0.01 | 87 | 1014.8 |
| 20260510154807 | 62 | 156 | 0.0 | 4.3 | 0.00 | 0.26 | 0.01 | 88 | 1014.8 |
| 20260510154307 | 61 | 198 | 0.0 | 4.3 | 0.00 | 0.26 | 0.01 | 89 | 1014.9 |
| 20260510153807 | 60 | 198 | 0.9 | 4.3 | 0.00 | 0.26 | 0.01 | 89 | 1014.8 |
| 20260510153307 | 59 | 153 | 0.9 | 4.3 | 0.00 | 0.26 | 0.01 | 91 | 1015.0 |
| 20260510152807 | 59 | 118 | 0.0 | 4.3 | 0.00 | 0.26 | 0.01 | 91 | 1015.1 |
| 20260510152308 | 59 | 118 | 0.9 | 4.3 | 0.00 | 0.26 | 0.01 | 90 | 1015.1 |
| 20260510151807 | 59 | 147 | 0.0 | 4.3 | 0.00 | 0.26 | 0.01 | 92 | 1015.0 |
| 20260510151306 | 59 | 147 | 0.0 | 4.3 | 0.00 | 0.26 | 0.01 | 92 | 1014.9 |
| 20260510150806 | 59 | 148 | 0.0 | 4.3 | 0.00 | 0.26 | 0.01 | 94 | 1015.1 |
| 20260510150306 | 58 | 148 | 0.0 | 4.3 | 0.00 | 0.26 | 0.01 | 95 | 1015.0 |
| 20260510145806 | 58 | 141 | 0.0 | 4.3 | 0.00 | 0.26 | 0.01 | 95 | 1015.1 |
| 20260510145306 | 57 | 114 | 0.0 | 4.3 | 0.00 | 0.26 | 0.01 | 96 | 1015.0 |
| 20260510144806 | 57 | 114 | 0.0 | 4.3 | 0.00 | 0.26 | 0.01 | 96 | 1015.1 |
| 20260510144306 | 57 | 114 | 0.0 | 4.3 | 0.00 | 0.26 | 0.01 | 96 | 1015.0 |
| 20260510143805 | 56 | 114 | 0.0 | 4.3 | 0.00 | 0.26 | 0.01 | 97 | 1014.9 |
| 20260510143305 | 56 | 113 | 0.0 | 4.3 | 0.00 | 0.26 | 0.01 | 97 | 1014.9 |
| 20260510142805 | 56 | 113 | 0.0 | 4.3 | 0.00 | 0.26 | 0.01 | 97 | 1014.9 |
| 20260510142306 | 55 | 113 | 0.0 | 4.3 | 0.00 | 0.26 | 0.01 | 96 | 1014.9 |
| 20260510141805 | 55 | 113 | 0.0 | 4.3 | 0.00 | 0.26 | 0.01 | 97 | 1015.0 |
| 20260510141305 | 55 | 113 | 0.0 | 4.3 | 0.00 | 0.26 | 0.01 | 97 | 1014.9 |
| 20260510140805 | 55 | 113 | 0.9 | 4.3 | 0.00 | 0.26 | 0.01 | 97 | 1014.9 |
| 20260510140304 | 55 | 113 | 0.0 | 4.3 | 0.00 | 0.26 | 0.01 | 97 | 1014.9 |
| 20260510135804 | 55 | 113 | 0.0 | 4.3 | 0.00 | 0.26 | 0.01 | 97 | 1014.9 |
| 20260510135306 | 55 | 138 | 0.0 | 4.3 | 0.00 | 0.26 | 0.01 | 97 | 1014.8 |
| 20260510134804 | 54 | 134 | 0.9 | 4.3 | 0.00 | 0.26 | 0.01 | 97 | 1014.8 |
| 20260510134304 | 54 | 128 | 1.7 | 4.3 | 0.00 | 0.26 | 0.01 | 97 | 1014.8 |
| 20260510133804 | 54 | 136 | 0.9 | 4.3 | 0.00 | 0.26 | 0.01 | 97 | 1015.0 |
| 20260510133304 | 54 | 149 | 0.0 | 4.3 | 0.00 | 0.26 | 0.01 | 97 | 1015.0 |
| 20260510132803 | 54 | 137 | 0.0 | 4.3 | 0.00 | 0.26 | 0.01 | 97 | 1014.9 |
| 20260510132306 | 54 | 137 | 0.0 | 4.3 | 0.00 | 0.26 | 0.01 | 97 | 1014.7 |
| 20260510131803 | 54 | 137 | 0.0 | 4.3 | 0.00 | 0.26 | 0.01 | 97 | 1014.6 |
| 20260510131303 | 54 | 119 | 0.9 | 4.3 | 0.00 | 0.26 | 0.01 | 97 | 1014.6 |
| 20260510130803 | 54 | 119 | 0.0 | 4.3 | 0.00 | 0.26 | 0.01 | 97 | 1014.4 |
| 20260510130303 | 53 | 116 | 1.7 | 4.3 | 0.00 | 0.26 | 0.01 | 97 | 1014.2 |
| 20260510125802 | 53 | 145 | 0.0 | 3.5 | 0.00 | 0.26 | 0.01 | 97 | 1014.1 |
| 20260510125306 | 54 | 122 | 0.0 | 3.5 | 0.00 | 0.26 | 0.01 | 97 | 1014.1 |
| 20260510124802 | 54 | 137 | 0.9 | 3.5 | 0.00 | 0.26 | 0.01 | 97 | 1014.1 |
| 20260510124302 | 53 | 111 | 0.0 | 3.5 | 0.00 | 0.26 | 0.01 | 97 | 1014.0 |
| 20260510123802 | 53 | 121 | 0.9 | 3.5 | 0.00 | 0.26 | 0.01 | 97 | 1014.1 |
| 20260510123302 | 53 | 122 | 0.9 | 3.5 | 0.00 | 0.26 | 0.01 | 97 | 1014.0 |
| 20260510122802 | 53 | 132 | 0.0 | 3.5 | 0.00 | 0.26 | 0.01 | 97 | 1014.0 |
| 20260510122305 | 53 | 135 | 0.9 | 3.5 | 0.00 | 0.26 | 0.01 | 97 | 1014.1 |
| 20260510121801 | 53 | 135 | 0.0 | 3.5 | 0.00 | 0.26 | 0.01 | 97 | 1014.0 |
| 20260510121301 | 53 | 134 | 0.0 | 3.5 | 0.00 | 0.26 | 0.01 | 97 | 1014.0 |
| 20260510120801 | 53 | 129 | 0.9 | 3.5 | 0.00 | 0.26 | 0.01 | 97 | 1014.1 |
| 20260510120301 | 53 | 122 | 0.0 | 3.5 | 0.00 | 0.26 | 0.01 | 97 | 1014.0 |
| 20260510115801 | 54 | 122 | 0.9 | 3.5 | 0.00 | 0.26 | 0.01 | 97 | 1014.0 |
| 20260510115305 | 53 | 122 | 0.0 | 3.5 | 0.00 | 0.26 | 0.01 | 97 | 1013.9 |
| 20260510114801 | 53 | 122 | 0.0 | 3.5 | 0.00 | 0.26 | 0.01 | 97 | 1013.8 |
| 20260510114300 | 53 | 122 | 0.9 | 3.5 | 0.00 | 0.26 | 0.01 | 97 | 1013.7 |
| 20260510113800 | 53 | 122 | 0.9 | 3.5 | 0.00 | 0.26 | 0.01 | 97 | 1013.7 |
| 20260510113300 | 54 | 131 | 0.0 | 3.5 | 0.00 | 0.26 | 0.01 | 97 | 1013.7 |
| 20260510112800 | 54 | 131 | 0.0 | 3.5 | 0.00 | 0.26 | 0.01 | 97 | 1013.7 |
| 20260510112300 | 54 | 131 | 0.0 | 3.5 | 0.00 | 0.26 | 0.01 | 97 | 1013.7 |
| 20260510111800 | 54 | 131 | 0.0 | 3.5 | 0.00 | 0.26 | 0.01 | 97 | 1013.6 |
| 20260510111300 | 54 | 110 | 0.0 | 3.5 | 0.00 | 0.26 | 0.01 | 97 | 1013.4 |
| 20260510110759 | 54 | 116 | 0.9 | 3.5 | 0.00 | 0.26 | 0.01 | 97 | 1013.4 |
| 20260510110259 | 53 | 125 | 0.9 | 3.5 | 0.00 | 0.26 | 0.01 | 97 | 1013.3 |
| 20260510105759 | 53 | 134 | 0.9 | 3.5 | 0.00 | 0.26 | 0.01 | 97 | 1013.2 |
| 20260510105259 | 53 | 123 | 0.0 | 3.5 | 0.00 | 0.26 | 0.01 | 97 | 1013.2 |
| 20260510104759 | 53 | 123 | 0.0 | 3.5 | 0.00 | 0.26 | 0.01 | 97 | 1013.1 |
| 20260510104259 | 53 | 123 | 0.0 | 3.5 | 0.00 | 0.26 | 0.01 | 97 | 1013.2 |
| 20260510103759 | 54 | 123 | 0.0 | 3.5 | 0.00 | 0.26 | 0.01 | 98 | 1013.2 |
| 20260510103258 | 54 | 123 | 0.0 | 3.5 | 0.00 | 0.26 | 0.01 | 98 | 1013.3 |
| 20260510102758 | 54 | 123 | 0.0 | 3.5 | 0.00 | 0.26 | 0.01 | 98 | 1013.1 |
| 20260510102258 | 53 | 123 | 0.0 | 3.5 | 0.00 | 0.26 | 0.01 | 98 | 1013.2 |
| 20260510101758 | 53 | 123 | 0.0 | 3.5 | 0.00 | 0.26 | 0.01 | 97 | 1013.1 |
| 20260510101258 | 53 | 123 | 0.0 | 3.5 | 0.00 | 0.26 | 0.01 | 97 | 1013.1 |
| 20260510100758 | 53 | 123 | 0.0 | 3.5 | 0.00 | 0.26 | 0.01 | 98 | 1013.0 |
| 20260510100258 | 53 | 123 | 0.0 | 3.5 | 0.00 | 0.26 | 0.01 | 98 | 1013.1 |
| 20260510095757 | 53 | 123 | 0.0 | 3.5 | 0.00 | 0.26 | 0.01 | 98 | 1013.1 |
| 20260510095257 | 53 | 123 | 0.0 | 3.5 | 0.00 | 0.26 | 0.01 | 97 | 1013.2 |
| 20260510094757 | 53 | 123 | 0.0 | 3.5 | 0.00 | 0.26 | 0.01 | 98 | 1013.1 |
| 20260510094257 | 53 | 123 | 0.0 | 3.5 | 0.00 | 0.26 | 0.01 | 98 | 1013.0 |
| 20260510093757 | 53 | 338 | 0.0 | 3.5 | 0.00 | 0.26 | 0.01 | 98 | 1013.1 |
| 20260510093257 | 53 | 338 | 0.0 | 3.5 | 0.00 | 0.26 | 0.01 | 98 | 1013.0 |
| 20260510092757 | 52 | 338 | 0.0 | 3.5 | 0.00 | 0.26 | 0.01 | 97 | 1013.1 |
| 20260510092256 | 52 | 341 | 0.0 | 3.5 | 0.00 | 0.26 | 0.01 | 97 | 1013.1 |
| 20260510091756 | 52 | 341 | 0.0 | 3.5 | 0.00 | 0.26 | 0.01 | 97 | 1013.2 |
| 20260510091256 | 52 | 341 | 0.0 | 3.5 | 0.00 | 0.26 | 0.01 | 97 | 1013.3 |
| 20260510090756 | 52 | 332 | 0.9 | 3.5 | 0.00 | 0.26 | 0.01 | 97 | 1013.4 |
| 20260510090256 | 52 | 311 | 0.0 | 1.7 | 0.00 | 0.26 | 0.01 | 97 | 1013.3 |
| 20260510085756 | 51 | 311 | 0.0 | 1.7 | 0.00 | 0.26 | 0.01 | 97 | 1013.4 |
| 20260510085256 | 51 | 122 | 0.0 | 1.7 | 0.00 | 0.26 | 0.01 | 97 | 1013.3 |
| 20260510084755 | 52 | 122 | 0.0 | 1.7 | 0.00 | 0.26 | 0.01 | 97 | 1012.9 |
| 20260510084255 | 52 | 122 | 0.0 | 1.7 | 0.00 | 0.26 | 0.01 | 97 | 1013.0 |
| 20260510083755 | 52 | 122 | 0.0 | 1.7 | 0.00 | 0.26 | 0.01 | 97 | 1012.9 |
| 20260510083255 | 52 | 122 | 0.0 | 1.7 | 0.00 | 0.26 | 0.01 | 97 | 1012.8 |
| 20260510082755 | 52 | 122 | 0.0 | 1.7 | 0.00 | 0.26 | 0.01 | 97 | 1012.8 |
| 20260510082255 | 52 | 122 | 0.0 | 1.7 | 0.00 | 0.26 | 0.01 | 97 | 1012.9 |
| 20260510081754 | 52 | 122 | 0.0 | 1.7 | 0.00 | 0.26 | 0.01 | 97 | 1012.9 |
| 20260510081254 | 51 | 122 | 0.0 | 1.7 | 0.00 | 0.26 | 0.01 | 97 | 1012.8 |
| 20260510080754 | 51 | 315 | 0.0 | 1.7 | 0.00 | 0.26 | 0.01 | 97 | 1012.7 |
| 20260510080254 | 51 | 315 | 0.0 | 1.7 | 0.00 | 0.26 | 0.01 | 97 | 1012.7 |
| 20260510075754 | 51 | 315 | 0.0 | 1.7 | 0.00 | 0.26 | 0.01 | 97 | 1012.6 |
| 20260510075254 | 51 | 274 | 0.0 | 1.7 | 0.00 | 0.26 | 0.01 | 97 | 1012.6 |
| 20260510074754 | 51 | 284 | 0.0 | 1.7 | 0.00 | 0.26 | 0.01 | 97 | 1012.6 |
| 20260510074253 | 51 | 1 | 0.0 | 1.7 | 0.00 | 0.26 | 0.01 | 97 | 1012.6 |
| 20260510073753 | 51 | 1 | 0.0 | 1.7 | 0.00 | 0.26 | 0.01 | 97 | 1012.5 |
| 20260510073253 | 51 | 1 | 0.0 | 1.7 | 0.00 | 0.26 | 0.01 | 97 | 1012.5 |
| 20260510072753 | 51 | 1 | 0.0 | 1.7 | 0.00 | 0.26 | 0.01 | 97 | 1012.5 |
| 20260510072253 | 51 | 5 | 0.0 | 1.7 | 0.00 | 0.26 | 0.01 | 97 | 1012.5 |
| 20260510071753 | 51 | 6 | 0.0 | 1.7 | 0.00 | 0.26 | 0.01 | 97 | 1012.5 |
| 20260510071253 | 51 | 288 | 0.0 | 1.7 | 0.00 | 0.26 | 0.01 | 96 | 1012.5 |
| 20260510070752 | 51 | 134 | 0.0 | 0.9 | 0.00 | 0.26 | 0.01 | 97 | 1012.5 |
| 20260510070252 | 51 | 134 | 0.0 | 0.9 | 0.00 | 0.26 | 0.01 | 97 | 1012.5 |
| 20260510065752 | 51 | 134 | 0.0 | 0.9 | 0.00 | 0.26 | 0.01 | 97 | 1012.4 |
| 20260510065252 | 51 | 134 | 0.0 | 0.9 | 0.00 | 0.26 | 0.01 | 97 | 1012.3 |
| 20260510064752 | 51 | 134 | 0.0 | 0.9 | 0.01 | 0.26 | 0.01 | 97 | 1012.3 |
| 20260510064252 | 51 | 134 | 0.0 | 0.9 | 0.01 | 0.26 | 0.01 | 97 | 1012.3 |
| 20260510063751 | 51 | 134 | 0.0 | 0.9 | 0.01 | 0.26 | 0.01 | 97 | 1012.2 |
| 20260510063251 | 50 | 134 | 0.0 | 0.9 | 0.01 | 0.26 | 0.01 | 97 | 1012.2 |
| 20260510062751 | 50 | 134 | 0.0 | 0.9 | 0.01 | 0.26 | 0.01 | 97 | 1012.3 |
| 20260510062251 | 50 | 134 | 0.0 | 0.9 | 0.01 | 0.26 | 0.01 | 97 | 1012.3 |
| 20260510061751 | 50 | 134 | 0.0 | 0.9 | 0.01 | 0.26 | 0.01 | 97 | 1012.2 |
| 20260510061251 | 50 | 134 | 0.0 | 0.9 | 0.01 | 0.26 | 0.01 | 97 | 1012.2 |
| 20260510060751 | 50 | 134 | 0.0 | 0.9 | 0.01 | 0.26 | 0.01 | 97 | 1012.2 |
| 20260510060250 | 50 | 134 | 0.0 | 0.9 | 0.01 | 0.26 | 0.01 | 97 | 1012.2 |
| 20260510055750 | 50 | 134 | 0.0 | 0.9 | 0.01 | 0.26 | 0.01 | 97 | 1012.3 |
| 20260510055250 | 50 | 134 | 0.0 | 0.0 | 0.01 | 0.26 | 0.01 | 97 | 1012.3 |
| 20260510054750 | 50 | 134 | 0.0 | 0.0 | 0.00 | 0.25 | 0.00 | 96 | 1012.4 |
| 20260510054250 | 50 | 134 | 0.0 | 0.0 | 0.00 | 0.25 | 0.00 | 97 | 1012.4 |
| 20260510053750 | 50 | 134 | 0.0 | 0.0 | 0.00 | 0.25 | 0.00 | 96 | 1012.3 |
| 20260510053249 | 50 | 134 | 0.0 | 0.0 | 0.00 | 0.25 | 0.00 | 97 | 1012.3 |
| 20260510052749 | 50 | 134 | 0.0 | 0.0 | 0.00 | 0.25 | 0.00 | 96 | 1012.4 |
| 20260510052249 | 50 | 134 | 0.0 | 0.0 | 0.00 | 0.25 | 0.00 | 96 | 1012.4 |
| 20260510051749 | 50 | 134 | 0.0 | 0.0 | 0.00 | 0.25 | 0.00 | 96 | 1012.5 |
| 20260510051249 | 50 | 134 | 0.0 | 0.0 | 0.00 | 0.25 | 0.00 | 96 | 1012.4 |
| 20260510050749 | 51 | 134 | 0.0 | 0.0 | 0.00 | 0.25 | 0.00 | 96 | 1012.4 |
| 20260510050248 | 50 | 134 | 0.0 | 0.0 | 0.00 | 0.25 | 0.00 | 96 | 1012.5 |
| 20260510045748 | 51 | 134 | 0.0 | 0.0 | 0.00 | 0.25 | 0.00 | 96 | 1012.5 |
| 20260510045248 | 51 | 134 | 0.0 | 0.0 | 0.00 | 0.25 | 0.00 | 96 | 1012.6 |
| 20260510044748 | 51 | 134 | 0.0 | 0.0 | 0.00 | 0.25 | 0.00 | 96 | 1012.6 |
| 20260510044248 | 51 | 134 | 0.0 | 0.0 | 0.00 | 0.25 | 0.00 | 96 | 1012.7 |
| 20260510043748 | 51 | 134 | 0.0 | 0.0 | 0.00 | 0.25 | 0.00 | 96 | 1012.7 |
| 20260510043247 | 51 | 134 | 0.0 | 0.0 | 0.00 | 0.25 | 0.00 | 96 | 1012.7 |
| 20260510042747 | 51 | 134 | 0.0 | 0.0 | 0.00 | 0.25 | 0.00 | 96 | 1012.7 |
| 20260510042247 | 51 | 134 | 0.0 | 0.0 | 0.00 | 0.25 | 0.00 | 96 | 1012.7 |
| 20260510041747 | 51 | 134 | 0.0 | 0.0 | 0.00 | 0.25 | 0.00 | 96 | 1012.7 |
| 20260510041247 | 51 | 134 | 0.0 | 0.0 | 0.00 | 0.25 | 0.00 | 96 | 1012.5 |
| 20260510040747 | 51 | 134 | 0.0 | 0.0 | 0.00 | 0.25 | 0.00 | 96 | 1012.5 |
| 20260510040246 | 51 | 134 | 0.0 | 0.0 | 0.00 | 0.25 | 0.00 | 96 | 1012.5 |
| 20260510035746 | 52 | 134 | 0.0 | 10.4 | 0.00 | 0.25 | 0.25 | 96 | 1012.4 |
| 20260510035246 | 52 | 134 | 0.0 | 10.4 | 0.00 | 0.25 | 0.25 | 96 | 1012.3 |
| 20260510034746 | 52 | 134 | 0.0 | 10.4 | 0.00 | 0.25 | 0.25 | 96 | 1012.3 |
| 20260510034246 | 52 | 134 | 0.0 | 10.4 | 0.00 | 0.25 | 0.25 | 96 | 1012.3 |
| 20260510033746 | 52 | 134 | 0.0 | 10.4 | 0.00 | 0.25 | 0.25 | 96 | 1012.3 |
| 20260510033246 | 52 | 134 | 0.0 | 10.4 | 0.00 | 0.25 | 0.25 | 96 | 1012.3 |
| 20260510032745 | 52 | 134 | 0.0 | 10.4 | 0.00 | 0.25 | 0.25 | 96 | 1012.2 |
| 20260510032245 | 52 | 134 | 0.0 | 10.4 | 0.00 | 0.25 | 0.25 | 96 | 1012.4 |
| 20260510031745 | 52 | 134 | 0.0 | 10.4 | 0.00 | 0.25 | 0.25 | 96 | 1012.4 |
| 20260510031245 | 53 | 134 | 0.0 | 10.4 | 0.00 | 0.25 | 0.25 | 96 | 1012.3 |
| 20260510030745 | 53 | 134 | 0.0 | 10.4 | 0.00 | 0.25 | 0.25 | 96 | 1012.2 |
| 20260510030245 | 53 | 134 | 0.0 | 10.4 | 0.00 | 0.25 | 0.25 | 96 | 1012.3 |
| 20260510025744 | 53 | 134 | 0.0 | 10.4 | 0.00 | 0.25 | 0.25 | 96 | 1012.3 |
| 20260510025244 | 53 | 134 | 0.0 | 10.4 | 0.00 | 0.25 | 0.25 | 96 | 1012.2 |
| 20260510024744 | 53 | 134 | 0.0 | 10.4 | 0.00 | 0.25 | 0.25 | 96 | 1012.2 |
| 20260510024244 | 53 | 134 | 0.0 | 10.4 | 0.00 | 0.25 | 0.25 | 96 | 1012.3 |
| 20260510023744 | 53 | 134 | 0.0 | 10.4 | 0.00 | 0.25 | 0.25 | 96 | 1012.2 |
| 20260510023244 | 53 | 134 | 0.0 | 10.4 | 0.00 | 0.25 | 0.25 | 96 | 1012.3 |
| 20260510022743 | 53 | 134 | 0.0 | 10.4 | 0.00 | 0.25 | 0.25 | 96 | 1012.3 |
| 20260510022243 | 53 | 134 | 0.0 | 10.4 | 0.00 | 0.25 | 0.25 | 96 | 1012.4 |
| 20260510021743 | 53 | 134 | 0.0 | 10.4 | 0.00 | 0.25 | 0.25 | 95 | 1012.4 |
| 20260510021243 | 53 | 134 | 0.0 | 10.4 | 0.00 | 0.25 | 0.25 | 96 | 1012.3 |
| 20260510020743 | 53 | 134 | 0.0 | 10.4 | 0.00 | 0.25 | 0.25 | 95 | 1012.4 |
| 20260510020243 | 53 | 134 | 0.0 | 10.4 | 0.00 | 0.25 | 0.25 | 95 | 1012.3 |
| 20260510015742 | 54 | 134 | 0.0 | 10.4 | 0.00 | 0.25 | 0.25 | 96 | 1012.3 |
| 20260510015242 | 53 | 134 | 0.0 | 10.4 | 0.00 | 0.25 | 0.25 | 95 | 1012.3 |
| 20260510014742 | 54 | 134 | 0.0 | 10.4 | 0.00 | 0.25 | 0.25 | 95 | 1012.2 |
| 20260510014242 | 53 | 134 | 0.0 | 10.4 | 0.00 | 0.25 | 0.25 | 95 | 1012.2 |
| 20260510013742 | 54 | 134 | 0.0 | 10.4 | 0.00 | 0.25 | 0.25 | 95 | 1012.2 |
| 20260510013242 | 53 | 134 | 0.0 | 10.4 | 0.00 | 0.25 | 0.25 | 95 | 1012.2 |
| 20260510012741 | 53 | 134 | 0.0 | 10.4 | 0.00 | 0.25 | 0.25 | 95 | 1012.2 |
| 20260510012241 | 53 | 134 | 0.0 | 10.4 | 0.00 | 0.25 | 0.25 | 95 | 1012.2 |
| 20260510011741 | 53 | 134 | 0.0 | 10.4 | 0.00 | 0.25 | 0.25 | 95 | 1012.0 |
| 20260510011241 | 53 | 134 | 0.0 | 10.4 | 0.00 | 0.25 | 0.25 | 94 | 1012.0 |
| 20260510010741 | 54 | 134 | 0.0 | 10.4 | 0.00 | 0.25 | 0.25 | 95 | 1012.0 |
| 20260510010241 | 54 | 134 | 0.0 | 10.4 | 0.00 | 0.25 | 0.25 | 94 | 1011.9 |
| 20260510005741 | 54 | 134 | 0.0 | 10.4 | 0.00 | 0.25 | 0.25 | 94 | 1011.8 |
| 20260510005240 | 54 | 134 | 0.0 | 10.4 | 0.00 | 0.25 | 0.25 | 94 | 1011.8 |
| 20260510004740 | 54 | 134 | 0.0 | 10.4 | 0.00 | 0.25 | 0.25 | 94 | 1011.8 |
| 20260510004240 | 54 | 134 | 0.0 | 10.4 | 0.00 | 0.25 | 0.25 | 94 | 1011.8 |
| 20260510003740 | 54 | 134 | 0.0 | 10.4 | 0.00 | 0.25 | 0.25 | 93 | 1011.8 |
| 20260510003240 | 54 | 134 | 0.0 | 10.4 | 0.00 | 0.25 | 0.25 | 93 | 1011.8 |
| 20260510002740 | 55 | 134 | 0.0 | 10.4 | 0.00 | 0.25 | 0.25 | 93 | 1011.8 |
| 20260510002240 | 55 | 134 | 0.0 | 10.4 | 0.00 | 0.25 | 0.25 | 93 | 1011.8 |
| 20260510001739 | 55 | 134 | 0.0 | 10.4 | 0.00 | 0.25 | 0.25 | 93 | 1011.8 |
| 20260510001239 | 55 | 134 | 0.0 | 10.4 | 0.00 | 0.25 | 0.25 | 93 | 1011.8 |
| 20260510000739 | 55 | 134 | 0.0 | 10.4 | 0.00 | 0.25 | 0.25 | 92 | 1011.7 |
| 20260510000241 | 55 | 134 | 0.0 | 10.4 | 0.00 | 0.25 | 0.25 | 92 | 1011.6 |
| 20260509235739 | 56 | 134 | 0.0 | 10.4 | 0.00 | 0.25 | 0.25 | 92 | 1011.6 |
| 20260509235239 | 56 | 134 | 0.0 | 10.4 | 0.00 | 0.25 | 0.25 | 91 | 1011.6 |
| 20260509234739 | 56 | 134 | 0.0 | 10.4 | 0.00 | 0.25 | 0.25 | 91 | 1011.6 |
| 20260509234238 | 56 | 134 | 0.0 | 10.4 | 0.00 | 0.25 | 0.25 | 91 | 1011.5 |
| 20260509233738 | 56 | 134 | 0.0 | 10.4 | 0.00 | 0.25 | 0.25 | 91 | 1011.5 |
| 20260509233238 | 56 | 138 | 0.0 | 10.4 | 0.00 | 0.25 | 0.25 | 91 | 1011.4 |
| 20260509232738 | 57 | 137 | 0.9 | 10.4 | 0.00 | 0.25 | 0.25 | 90 | 1011.4 |
| 20260509232238 | 57 | 133 | 0.0 | 10.4 | 0.00 | 0.25 | 0.25 | 91 | 1011.4 |
| 20260509231738 | 57 | 131 | 0.0 | 10.4 | 0.01 | 0.25 | 0.25 | 90 | 1011.4 |
| 20260509231237 | 57 | 131 | 0.0 | 10.4 | 0.03 | 0.25 | 0.25 | 90 | 1011.4 |
| 20260509230737 | 57 | 131 | 0.0 | 10.4 | 0.05 | 0.25 | 0.25 | 91 | 1011.5 |
| 20260509230237 | 57 | 105 | 0.0 | 10.4 | 0.08 | 0.25 | 0.25 | 91 | 1011.6 |
| 20260509225737 | 57 | 155 | 0.0 | 10.4 | 0.10 | 0.25 | 0.25 | 90 | 1011.6 |
| 20260509225237 | 58 | 115 | 0.9 | 10.4 | 0.12 | 0.25 | 0.25 | 89 | 1011.6 |
| 20260509224737 | 58 | 155 | 0.0 | 10.4 | 0.13 | 0.25 | 0.25 | 90 | 1011.7 |
| 20260509224237 | 58 | 99 | 0.0 | 10.4 | 0.17 | 0.25 | 0.25 | 90 | 1011.8 |
| 20260509223736 | 58 | 99 | 0.0 | 10.4 | 0.19 | 0.25 | 0.25 | 89 | 1011.8 |
| 20260509223236 | 58 | 107 | 0.0 | 10.4 | 0.19 | 0.25 | 0.25 | 89 | 1011.9 |
| 20260509222736 | 58 | 109 | 0.0 | 10.4 | 0.19 | 0.25 | 0.25 | 90 | 1012.0 |
| 20260509222236 | 57 | 109 | 0.0 | 10.4 | 0.19 | 0.25 | 0.25 | 91 | 1012.0 |
| 20260509221736 | 57 | 47 | 0.0 | 10.4 | 0.18 | 0.24 | 0.24 | 90 | 1012.0 |
| 20260509221236 | 57 | 47 | 0.0 | 10.4 | 0.16 | 0.22 | 0.22 | 89 | 1012.1 |
| 20260509220736 | 58 | 47 | 0.0 | 10.4 | 0.14 | 0.20 | 0.20 | 88 | 1012.5 |
| 20260509220235 | 58 | 47 | 0.0 | 10.4 | 0.11 | 0.17 | 0.17 | 88 | 1012.5 |
| 20260509215735 | 58 | 46 | 0.0 | 10.4 | 0.09 | 0.15 | 0.15 | 87 | 1012.3 |
| 20260509215235 | 59 | 46 | 0.0 | 10.4 | 0.07 | 0.13 | 0.13 | 85 | 1012.1 |
| 20260509214735 | 60 | 46 | 0.0 | 10.4 | 0.06 | 0.12 | 0.12 | 82 | 1012.4 |